Time;durP1;ratioP1;P1;durP2;ratioP2;P2;SDS_P1;SDS_P2;PMS_P1;PMS_P2;Temp;Humidity;BMP_temperature;BMP_pressure;BME280_temperature;BME280_humidity;BME280_pressure;Samples;Min_cycle;Max_cycle;Signal;HPM_P1;HPM_P2
2021/09/14 00:00:16;;;;;;;59.38;34.40;;;;;;;15.72;100.00;100632.94;1737617;82;21097;-87
2021/09/14 00:02:43;;;;;;;52.93;35.85;;;;;;;15.71;100.00;100635.22;1737508;82;21133;-82
2021/09/14 00:05:11;;;;;;;60.80;34.65;;;;;;;15.68;100.00;100623.69;1737227;82;21509;-85
2021/09/14 00:07:39;;;;;;;66.37;33.83;;;;;;;15.66;100.00;100629.59;1747883;80;20900;-87
2021/09/14 00:10:08;;;;;;;47.25;32.53;;;;;;;15.65;100.00;100633.19;1748238;81;21410;-81
2021/09/14 00:12:35;;;;;;;54.00;33.48;;;;;;;15.61;100.00;100633.13;1748885;81;20994;-84
2021/09/14 00:15:04;;;;;;;51.15;32.33;;;;;;;15.49;100.00;100632.52;1748592;81;21939;-88
2021/09/14 00:17:33;;;;;;;45.83;31.25;;;;;;;15.34;100.00;100631.36;1747939;81;21065;-82
2021/09/14 00:20:00;;;;;;;46.75;31.55;;;;;;;15.16;100.00;100630.00;1747840;81;21042;-82
2021/09/14 00:22:27;;;;;;;47.55;29.10;;;;;;;14.95;100.00;100629.72;1737552;82;21514;-86
2021/09/14 00:24:53;;;;;;;41.70;26.97;;;;;;;14.76;100.00;100632.77;1737626;81;20943;-86
2021/09/14 00:27:20;;;;;;;44.03;27.42;;;;;;;14.58;100.00;100633.93;1737433;82;21040;-84
2021/09/14 00:29:47;;;;;;;37.40;24.85;;;;;;;14.40;100.00;100632.52;1747774;81;21078;-84
2021/09/14 00:32:14;;;;;;;32.15;23.87;;;;;;;14.27;100.00;100625.45;1737498;82;21057;-88
2021/09/14 00:34:41;;;;;;;35.17;23.65;;;;;;;14.18;100.00;100620.08;1737760;82;21565;-83
2021/09/14 00:37:10;;;;;;;35.95;23.32;;;;;;;14.12;100.00;100619.79;1747781;81;21404;-83
2021/09/14 00:39:37;;;;;;;34.58;23.83;;;;;;;14.03;100.00;100623.58;1747770;81;21145;-85
2021/09/14 00:42:04;;;;;;;36.20;23.77;;;;;;;14.04;100.00;100620.00;1737340;82;21042;-85
2021/09/14 00:44:31;;;;;;;35.68;23.87;;;;;;;14.13;100.00;100620.98;1737015;82;21041;-85
2021/09/14 00:47:00;;;;;;;31.97;23.00;;;;;;;14.23;100.00;100620.13;1737375;81;21683;-84
2021/09/14 00:49:27;;;;;;;40.38;23.83;;;;;;;14.31;100.00;100625.49;1748253;80;21065;-83
2021/09/14 00:51:56;;;;;;;36.45;24.20;;;;;;;14.36;100.00;100628.54;1737385;82;21908;-86
2021/09/14 00:54:26;;;;;;;32.65;24.57;;;;;;;14.40;100.00;100627.78;1737637;80;21458;-84
2021/09/14 00:57:01;;;;;;;39.20;25.40;;;;;;;14.42;100.00;100629.28;1737399;82;21042;-82
2021/09/14 00:59:25;;;;;;;38.17;24.27;;;;;;;14.45;100.00;100630.33;1762261;80;21572;-84
2021/09/14 01:01:55;;;;;;;34.15;23.55;;;;;;;14.49;100.00;100623.83;1737509;81;21015;-86
2021/09/14 01:04:23;;;;;;;37.50;22.67;;;;;;;14.54;100.00;100619.97;1737598;81;21088;-86
2021/09/14 01:06:50;;;;;;;33.90;22.45;;;;;;;14.56;100.00;100624.56;1748892;80;20940;-82
2021/09/14 01:09:20;;;;;;;37.55;22.27;;;;;;;14.52;100.00;100620.09;1756034;80;21081;-87
2021/09/14 01:11:47;;;;;;;31.17;20.52;;;;;;;14.48;100.00;100617.42;1778537;80;21022;-84
2021/09/14 01:14:15;;;;;;;36.38;22.35;;;;;;;14.45;100.00;100621.62;1756511;80;20946;-84
2021/09/14 01:16:42;;;;;;;32.38;22.40;;;;;;;14.42;100.00;100620.11;1691212;83;22216;-84
2021/09/14 01:19:11;;;;;;;33.42;21.27;;;;;;;14.41;100.00;100621.58;1741225;82;21046;-85
2021/09/14 01:21:40;;;;;;;37.15;23.10;;;;;;;14.40;100.00;100616.80;1711513;83;21160;-85
2021/09/14 01:24:09;;;;;;;35.80;23.67;;;;;;;14.42;100.00;100626.66;1730627;82;21105;-84
2021/09/14 01:26:37;;;;;;;33.10;22.75;;;;;;;14.43;100.00;100627.02;1687613;83;21069;-82
2021/09/14 01:29:11;;;;;;;33.55;21.60;;;;;;;14.45;100.00;100631.64;1730419;82;21097;-84
2021/09/14 01:31:41;;;;;;;30.88;22.20;;;;;;;14.46;100.00;100626.71;1668263;83;21002;-84
2021/09/14 01:34:09;;;;;;;30.32;21.52;;;;;;;14.49;100.00;100621.70;1741501;82;21006;-82
2021/09/14 01:36:39;;;;;;;32.28;22.60;;;;;;;14.50;100.00;100624.17;1691227;82;21070;-84
2021/09/14 01:39:07;;;;;;;28.62;21.85;;;;;;;14.49;100.00;100627.75;1730897;82;21509;-82
2021/09/14 01:41:35;;;;;;;29.92;20.97;;;;;;;14.47;100.00;100621.82;1711757;83;21120;-82
2021/09/14 01:44:03;;;;;;;33.42;20.45;;;;;;;14.47;100.00;100627.06;1730253;82;22078;-84
2021/09/14 01:46:30;;;;;;;35.08;20.97;;;;;;;14.47;100.00;100625.75;1691186;83;21477;-82
2021/09/14 01:48:57;;;;;;;28.77;20.75;;;;;;;14.45;100.00;100621.16;1730324;82;22075;-82
2021/09/14 01:51:25;;;;;;;34.38;21.68;;;;;;;14.47;100.00;100628.87;1691360;83;21073;-82
2021/09/14 01:53:54;;;;;;;29.65;21.55;;;;;;;14.50;100.00;100630.72;1730681;82;21929;-82
2021/09/14 01:56:21;;;;;;;32.93;22.17;;;;;;;14.51;100.00;100632.38;1691251;83;21109;-83
2021/09/14 01:58:50;;;;;;;28.25;21.68;;;;;;;14.50;100.00;100630.72;1740987;82;21034;-83
2021/09/14 02:01:40;;;;;;;35.85;23.22;;;;;;;14.43;100.00;100628.78;1691032;82;21525;-86
2021/09/14 02:04:09;;;;;;;34.83;22.70;;;;;;;14.36;100.00;100628.05;1715581;82;22692;-85
2021/09/14 02:23:39;;;;;;;31.90;22.90;;;;;;;14.26;100.00;100632.45;1707601;83;21093;-85
2021/09/14 02:58:39;;;;;;;52.25;29.40;;;;;;;13.89;100.00;100660.64;1683427;83;21608;-81
2021/09/14 03:01:21;;;;;;;63.57;28.73;;;;;;;13.92;100.00;100663.46;1683188;83;21880;-83
2021/09/14 03:03:49;;;;;;;53.08;27.32;;;;;;;13.94;100.00;100662.84;1679181;83;21638;-83
2021/09/14 03:06:19;;;;;;;78.60;28.25;;;;;;;13.95;100.00;100668.44;1782714;80;21005;-84
2021/09/14 03:08:47;;;;;;;;;;;;;;;13.97;100.00;100669.13;1761721;80;21038;-87
2021/09/14 03:11:18;;;;;;;52.03;30.23;;;;;;;14.02;100.00;100674.78;1763361;80;20708;-84
2021/09/14 03:13:49;;;;;;;54.53;32.80;;;;;;;14.12;100.00;100676.09;1749490;80;21020;-87
2021/09/14 03:16:17;;;;;;;50.08;32.17;;;;;;;14.15;100.00;100672.71;1734469;80;20994;-86
2021/09/14 03:18:46;;;;;;;54.58;28.98;;;;;;;14.22;100.00;100673.00;1749799;80;21087;-85
2021/09/14 03:21:15;;;;;;;50.70;28.07;;;;;;;14.28;100.00;100676.86;1757088;80;21035;-83
2021/09/14 03:23:44;;;;;;;41.37;24.57;;;;;;;14.25;100.00;100673.20;1730492;80;22023;-83
2021/09/14 03:26:11;;;;;;;37.42;26.25;;;;;;;14.18;100.00;100695.20;1747314;81;21823;-83
2021/09/14 03:28:40;;;;;;;39.92;27.35;;;;;;;13.95;100.00;100698.54;1746286;80;22240;-84
2021/09/14 03:31:07;;;;;;;41.83;28.80;;;;;;;13.71;100.00;100690.57;1754982;80;21030;-87
2021/09/14 03:33:34;;;;;;;46.98;29.95;;;;;;;13.56;100.00;100687.48;1752730;80;22024;-84
2021/09/14 03:36:01;;;;;;;52.03;32.50;;;;;;;13.53;100.00;100699.05;1757625;80;21402;-82
2021/09/14 03:38:28;;;;;;;56.88;33.65;;;;;;;13.47;100.00;100693.52;1727175;80;21480;-88
2021/09/14 03:40:56;;;;;;;61.63;33.55;;;;;;;13.37;100.00;100694.30;1739239;80;21065;-81
2021/09/14 03:43:23;;;;;;;49.42;33.02;;;;;;;13.45;100.00;100691.53;1732083;81;21754;-86
2021/09/14 03:45:50;;;;;;;51.08;32.95;;;;;;;13.52;100.00;100705.73;1755732;80;21078;-84
2021/09/14 03:48:19;;;;;;;51.23;33.08;;;;;;;13.46;100.00;100695.31;1736155;80;21158;-81
2021/09/14 03:50:48;;;;;;;58.80;34.60;;;;;;;13.43;100.00;100699.48;1756220;80;21100;-80
2021/09/14 03:53:15;;;;;;;53.65;33.80;;;;;;;13.49;100.00;100691.14;1733779;81;20994;-88
2021/09/14 03:55:42;;;;;;;54.05;33.50;;;;;;;13.61;100.00;100694.48;1756484;80;21077;-84
2021/09/14 03:58:10;;;;;;;52.67;35.48;;;;;;;13.70;100.00;100696.77;1760152;80;21023;-85
2021/09/14 04:00:37;;;;;;;52.65;35.60;;;;;;;13.73;100.00;100700.43;1735078;80;21092;-82
2021/09/14 04:03:20;;;;;;;62.20;35.80;;;;;;;13.74;100.00;100700.75;1757403;80;21684;-82
2021/09/14 04:11:23;;;;;;;78.30;49.95;;;;;;;13.78;100.00;100704.77;1755676;80;21105;-84
2021/09/14 04:13:54;;;;;;;101.45;65.12;;;;;;;13.78;100.00;100707.89;1774379;80;20974;-85
2021/09/14 04:16:21;;;;;;;106.03;63.58;;;;;;;13.77;100.00;100703.61;1762567;80;21166;-83
2021/09/14 04:18:49;;;;;;;96.87;59.93;;;;;;;13.75;100.00;100712.06;1763086;80;21042;-82
2021/09/14 04:21:17;;;;;;;83.58;54.48;;;;;;;13.77;100.00;100711.45;1774642;80;21011;-86
2021/09/14 04:23:44;;;;;;;81.63;52.27;;;;;;;13.78;100.00;100711.81;1778858;80;21010;-85
2021/09/14 04:26:12;;;;;;;76.82;48.60;;;;;;;13.80;100.00;100716.41;1782648;80;20998;-83
2021/09/14 04:28:39;;;;;;;65.25;39.90;;;;;;;13.82;100.00;100717.92;1782865;80;21022;-87
2021/09/14 04:31:06;;;;;;;56.73;36.38;;;;;;;13.83;100.00;100714.34;1778561;80;20940;-83
2021/09/14 04:33:35;;;;;;;53.08;33.35;;;;;;;13.82;100.00;100716.61;1755206;80;21057;-86
2021/09/14 04:36:04;;;;;;;46.70;31.00;;;;;;;13.84;100.00;100722.55;1753525;80;21183;-86
2021/09/14 04:38:33;;;;;;;50.12;27.02;;;;;;;13.86;100.00;100714.59;1769798;80;21560;-83
2021/09/14 04:41:00;;;;;;;48.73;27.40;;;;;;;13.88;100.00;100713.95;1746890;80;21820;-87
2021/09/14 04:43:27;;;;;;;43.52;25.17;;;;;;;13.92;100.00;100721.05;1764297;80;21121;-85
2021/09/14 04:45:55;;;;;;;44.23;26.42;;;;;;;13.95;100.00;100720.79;1737734;80;21632;-83
2021/09/14 04:48:23;;;;;;;36.28;25.00;;;;;;;14.01;100.00;100724.17;1735411;81;21077;-85
2021/09/14 04:50:52;;;;;;;40.78;25.80;;;;;;;14.07;100.00;100718.87;1752009;80;21084;-84
2021/09/14 04:53:20;;;;;;;36.23;25.35;;;;;;;14.15;100.00;100721.65;1754769;80;21101;-84
2021/09/14 04:55:48;;;;;;;36.93;25.20;;;;;;;14.24;100.00;100715.59;1781957;80;21497;-81
2021/09/14 04:58:15;;;;;;;35.43;25.45;;;;;;;14.32;100.00;100707.04;1782202;80;21078;-81
2021/09/14 05:00:43;;;;;;;37.23;25.92;;;;;;;14.39;100.00;100708.14;1774182;80;21064;-81
2021/09/14 05:03:12;;;;;;;33.78;25.95;;;;;;;14.48;100.00;100702.08;1776286;80;21078;-86
2021/09/14 05:05:41;;;;;;;38.13;25.50;;;;;;;14.57;100.00;100702.20;1738173;81;21862;-88
2021/09/14 05:08:09;;;;;;;36.25;24.37;;;;;;;14.65;100.00;100699.72;1726186;82;21026;-85
2021/09/14 05:10:39;;;;;;;32.13;24.72;;;;;;;14.73;100.00;100695.95;1750066;80;20999;-84
2021/09/14 05:13:09;;;;;;;33.40;25.25;;;;;;;14.81;100.00;100697.38;1776014;80;21066;-85
2021/09/14 05:15:38;;;;;;;35.63;25.48;;;;;;;14.90;100.00;100694.37;1755103;80;21093;-85
2021/09/14 05:18:27;;;;;;;37.75;25.43;;;;;;;14.99;100.00;100704.52;1704055;83;21096;-85
2021/09/14 05:20:57;;;;;;;33.73;24.55;;;;;;;15.10;100.00;100706.95;1682636;84;21630;-81
2021/09/14 05:23:31;;;;;;;34.78;24.95;;;;;;;15.21;100.00;100709.91;1712031;82;21659;-84
2021/09/14 05:26:01;;;;;;;35.57;25.47;;;;;;;15.31;100.00;100703.31;1746348;82;21078;-84
2021/09/14 05:28:28;;;;;;;38.38;27.00;;;;;;;15.43;100.00;100705.27;1724550;82;21042;-85
2021/09/14 05:30:55;;;;;;;33.90;25.35;;;;;;;15.53;100.00;100706.05;1741681;80;22010;-84
2021/09/14 05:33:24;;;;;;;39.88;25.60;;;;;;;15.62;100.00;100713.53;1768524;80;21564;-84
2021/09/14 05:35:54;;;;;;;34.40;25.77;;;;;;;15.71;100.00;100717.91;1748633;80;21124;-84
2021/09/14 05:38:24;;;;;;;37.75;28.70;;;;;;;15.81;100.00;100730.16;1751615;80;21001;-85
2021/09/14 05:40:56;;;;;;;47.25;33.02;;;;;;;15.90;100.00;100730.12;1734162;80;21058;-81
2021/09/14 05:43:30;;;;;;;45.48;32.05;;;;;;;15.97;100.00;100717.23;1730744;80;21158;-82
2021/09/14 05:45:57;;;;;;;46.23;36.00;;;;;;;16.06;100.00;100720.77;1751848;80;21058;-84
2021/09/14 05:48:26;;;;;;;59.18;40.17;;;;;;;16.13;100.00;100716.56;1739503;81;21906;-82
2021/09/14 05:50:54;;;;;;;51.92;38.10;;;;;;;16.19;100.00;100723.84;1773854;80;21528;-80
2021/09/14 05:53:21;;;;;;;54.88;40.25;;;;;;;16.25;100.00;100725.05;1756721;80;21015;-84
2021/09/14 05:55:50;;;;;;;59.90;38.63;;;;;;;16.34;100.00;100724.66;1746205;80;21257;-84
2021/09/14 05:58:17;;;;;;;52.88;37.53;;;;;;;16.44;100.00;100721.94;1751792;80;21029;-82
2021/09/14 06:00:45;;;;;;;55.63;38.98;;;;;;;16.55;100.00;100728.26;1749388;80;21117;-87
2021/09/14 06:03:12;;;;;;;54.40;41.28;;;;;;;16.67;100.00;100737.57;1732175;81;21126;-82
2021/09/14 06:05:40;;;;;;;60.75;40.12;;;;;;;16.80;100.00;100730.60;1718955;80;21053;-85
2021/09/14 06:08:08;;;;;;;50.23;38.45;;;;;;;16.92;100.00;100714.08;1735207;80;21166;-85
2021/09/14 06:10:35;;;;;;;51.85;38.88;;;;;;;17.06;100.00;100727.67;1728139;80;21053;-81
2021/09/14 06:13:05;;;;;;;48.70;37.10;;;;;;;17.22;100.00;100742.73;1759977;80;21026;-79
2021/09/14 06:15:33;;;;;;;49.88;36.58;;;;;;;17.39;100.00;100735.23;1739556;80;21160;-83
2021/09/14 06:18:01;;;;;;;50.90;36.68;;;;;;;17.55;100.00;100737.14;1726837;82;21065;-83
2021/09/14 06:20:30;;;;;;;55.45;36.88;;;;;;;17.73;100.00;100746.75;1726864;82;24054;-79
2021/09/14 06:22:57;;;;;;;47.90;35.00;;;;;;;17.89;100.00;100740.22;1747612;82;21532;-84
2021/09/14 06:25:25;;;;;;;48.40;34.70;;;;;;;18.03;100.00;100744.05;1755204;80;21018;-80
2021/09/14 06:27:52;;;;;;;51.85;34.63;;;;;;;18.18;100.00;100735.03;1758229;80;21097;-86
2021/09/14 06:30:19;;;;;;;44.38;34.38;;;;;;;18.34;100.00;100739.99;1774119;80;21420;-82
2021/09/14 06:32:46;;;;;;;45.48;33.45;;;;;;;18.48;100.00;100738.53;1735747;81;21030;-81
2021/09/14 06:35:15;;;;;;;42.38;33.40;;;;;;;18.63;100.00;100740.02;1763872;80;21400;-82
2021/09/14 06:37:45;;;;;;;46.08;35.15;;;;;;;18.80;100.00;100741.63;1733737;80;21117;-84
2021/09/14 06:40:13;;;;;;;49.58;36.25;;;;;;;18.95;100.00;100738.37;1748869;80;21014;-82
2021/09/14 06:42:40;;;;;;;47.20;35.13;;;;;;;19.11;100.00;100736.99;1756549;80;21097;-82
2021/09/14 06:45:27;;;;;;;51.75;34.90;;;;;;;19.23;100.00;100737.45;1744310;80;21058;-86
2021/09/14 06:47:57;;;;;;;62.90;39.75;;;;;;;19.37;100.00;100736.78;1736664;80;21451;-82
2021/09/14 06:50:24;;;;;;;59.27;39.95;;;;;;;19.47;100.00;100745.81;1754136;80;21057;-82
2021/09/14 06:52:51;;;;;;;57.10;40.35;;;;;;;19.57;100.00;100746.11;1739532;80;21084;-83
2021/09/14 06:55:18;;;;;;;64.65;40.67;;;;;;;19.66;100.00;100743.77;1675070;81;21091;-80
2021/09/14 06:57:45;;;;;;;61.88;41.28;;;;;;;19.76;100.00;100736.43;1693120;82;21202;-79
2021/09/14 07:00:13;;;;;;;57.20;39.90;;;;;;;19.89;100.00;100745.66;1738433;81;21017;-80
2021/09/14 07:02:40;;;;;;;54.60;40.08;;;;;;;20.04;100.00;100750.52;1726396;82;21493;-82
2021/09/14 07:05:10;;;;;;;54.77;39.25;;;;;;;20.18;100.00;100751.60;1747275;81;21082;-79
2021/09/14 07:07:37;;;;;;;54.80;37.25;;;;;;;20.32;100.00;100752.64;1725929;82;21041;-81
2021/09/14 07:10:06;;;;;;;56.63;37.70;;;;;;;20.44;100.00;100755.21;1723666;82;21925;-82
2021/09/14 07:12:35;;;;;;;43.90;35.65;;;;;;;20.53;100.00;100751.98;1727326;80;20987;-79
2021/09/14 07:15:03;;;;;;;48.13;35.68;;;;;;;20.62;100.00;100748.28;1775740;80;21058;-82
2021/09/14 07:17:32;;;;;;;51.50;37.58;;;;;;;20.74;100.00;100746.57;1775286;80;21046;-80
2021/09/14 07:19:59;;;;;;;47.15;35.45;;;;;;;20.87;100.00;100750.73;1776765;80;21080;-82
2021/09/14 07:22:27;;;;;;;53.98;35.73;;;;;;;21.02;100.00;100755.22;1756066;80;21390;-80
2021/09/14 07:24:54;;;;;;;43.60;32.80;;;;;;;21.11;100.00;100748.84;1756382;80;21046;-82
2021/09/14 07:27:21;;;;;;;44.83;31.33;;;;;;;21.18;100.00;100749.77;1747510;81;21049;-82
2021/09/14 07:29:49;;;;;;;43.78;31.48;;;;;;;21.27;100.00;100743.38;1727344;80;21093;-81
2021/09/14 07:32:16;;;;;;;38.80;29.12;;;;;;;21.37;100.00;100748.39;1728677;80;21177;-82
2021/09/14 07:34:43;;;;;;;34.60;27.77;;;;;;;21.44;100.00;100741.34;1760737;80;22435;-78
2021/09/14 07:37:10;;;;;;;33.48;26.27;;;;;;;21.56;100.00;100740.89;1768138;80;21133;-83
2021/09/14 07:39:37;;;;;;;27.80;24.80;;;;;;;21.66;100.00;100743.27;1759994;80;21082;-84
2021/09/14 07:42:04;;;;;;;33.95;26.82;;;;;;;21.78;100.00;100742.28;1725878;82;21058;-81
2021/09/14 07:44:31;;;;;;;29.50;25.50;;;;;;;21.87;100.00;100738.52;1726235;82;21046;-82
2021/09/14 07:46:58;;;;;;;30.02;24.47;;;;;;;21.96;100.00;100732.59;1720554;82;21157;-80
2021/09/14 07:49:27;;;;;;;33.02;25.82;;;;;;;22.05;98.97;100731.47;1747085;82;21011;-80
2021/09/14 07:51:55;;;;;;;30.23;25.17;;;;;;;22.17;97.42;100731.78;1733612;80;21045;-79
2021/09/14 07:54:23;;;;;;;28.42;22.98;;;;;;;22.26;95.12;100728.00;1733924;81;21067;-81
2021/09/14 07:56:50;;;;;;;28.90;23.95;;;;;;;22.36;90.45;100726.34;1760446;81;21038;-81
2021/09/14 07:59:18;;;;;;;27.15;22.58;;;;;;;22.47;94.56;100722.41;1740867;81;21066;-80
2021/09/14 08:01:45;;;;;;;27.70;22.20;;;;;;;22.62;88.90;100727.12;1740789;81;21521;-80
2021/09/14 08:04:12;;;;;;;30.05;23.30;;;;;;;22.75;76.50;100725.57;1748283;80;21100;-80
2021/09/14 08:06:39;;;;;;;24.12;20.60;;;;;;;22.88;82.29;100724.84;1742472;80;21095;-82
2021/09/14 08:09:06;;;;;;;28.55;22.60;;;;;;;23.03;88.00;100721.57;1716320;80;21065;-82
2021/09/14 08:11:33;;;;;;;25.62;21.73;;;;;;;23.17;79.45;100725.13;1777939;80;21771;-83
2021/09/14 08:14:01;;;;;;;22.65;19.82;;;;;;;23.26;70.57;100720.00;1719379;82;21061;-80
2021/09/14 08:16:28;;;;;;;20.80;18.60;;;;;;;23.36;64.75;100719.63;1684210;84;21085;-79
2021/09/14 08:18:56;;;;;;;19.32;17.02;;;;;;;23.43;60.65;100723.12;1641843;85;21113;-79
2021/09/14 08:21:23;;;;;;;26.55;19.42;;;;;;;23.53;64.27;100718.77;1689213;83;21027;-81
2021/09/14 08:23:52;;;;;;;18.27;16.32;;;;;;;23.69;61.22;100714.95;1681281;83;20995;-85
2021/09/14 08:26:19;;;;;;;19.85;17.48;;;;;;;23.87;56.67;100717.56;1709519;83;21707;-80
2021/09/14 08:28:46;;;;;;;22.13;16.97;;;;;;;23.98;54.44;100714.84;1686038;83;21038;-82
2021/09/14 08:31:15;;;;;;;18.85;15.48;;;;;;;24.05;53.52;100713.02;1736476;81;20991;-83
2021/09/14 08:33:42;;;;;;;19.20;15.78;;;;;;;24.09;50.47;100718.22;1762432;80;20994;-82
2021/09/14 08:36:09;;;;;;;18.95;16.02;;;;;;;24.16;50.48;100711.06;1685772;82;21080;-81
2021/09/14 08:38:36;;;;;;;22.77;15.43;;;;;;;24.28;50.21;100716.59;1783780;80;21580;-84
2021/09/14 08:41:04;;;;;;;23.85;16.30;;;;;;;24.39;49.72;100712.53;1752677;80;21007;-82
2021/09/14 08:43:31;;;;;;;17.92;14.68;;;;;;;24.50;48.76;100705.77;1746028;81;21039;-81
2021/09/14 08:46:00;;;;;;;17.95;14.70;;;;;;;24.57;46.92;100704.73;1740678;81;21054;-81
2021/09/14 08:48:27;;;;;;;17.07;13.83;;;;;;;24.65;47.22;100709.03;1741119;81;21114;-79
2021/09/14 08:50:56;;;;;;;17.05;13.32;;;;;;;24.75;44.63;100706.50;1739630;80;20982;-83
2021/09/14 08:53:23;;;;;;;13.88;12.40;;;;;;;24.84;45.69;100699.41;1733163;81;21069;-81
2021/09/14 08:55:50;;;;;;;14.60;12.85;;;;;;;24.95;44.72;100703.80;1747370;81;21057;-83
2021/09/14 08:58:17;;;;;;;16.80;13.22;;;;;;;24.98;43.72;100704.69;1747276;82;20998;-81
2021/09/14 09:00:47;;;;;;;16.02;12.30;;;;;;;25.03;43.93;100702.23;1693343;82;21167;-80
2021/09/14 09:03:27;;;;;;;15.18;13.58;;;;;;;25.10;43.80;100705.70;1725569;82;21053;-85
2021/09/14 09:05:55;;;;;;;15.43;13.10;;;;;;;25.17;43.36;100701.66;1707035;83;21046;-82
2021/09/14 09:08:30;;;;;;;16.70;13.65;;;;;;;25.24;45.64;100699.78;1690632;83;21046;-81
2021/09/14 09:11:10;;;;;;;16.70;13.55;;;;;;;25.32;43.82;100695.55;1694868;83;21013;-80
2021/09/14 09:13:48;;;;;;;16.48;14.70;;;;;;;25.42;44.47;100699.15;1723515;82;21166;-83
2021/09/14 09:16:22;;;;;;;17.82;13.72;;;;;;;25.55;45.06;100693.44;1715363;82;21038;-81
2021/09/14 09:19:00;;;;;;;18.98;13.93;;;;;;;25.67;45.24;100699.75;1639727;85;21653;-81
2021/09/14 09:21:31;;;;;;;16.87;13.45;;;;;;;25.81;43.46;100692.46;1695707;83;21513;-83
2021/09/14 09:24:01;;;;;;;19.92;15.50;;;;;;;25.89;40.66;100688.73;1706029;82;21541;-80
2021/09/14 09:26:38;;;;;;;19.60;15.88;;;;;;;25.93;43.56;100686.76;1678413;82;21077;-84
2021/09/14 09:29:09;;;;;;;15.88;14.15;;;;;;;26.02;44.10;100682.50;1725346;82;21069;-79
2021/09/14 09:31:46;;;;;;;18.05;15.78;;;;;;;26.12;42.90;100694.34;1760454;80;21022;-78
2021/09/14 09:34:13;;;;;;;15.38;13.18;;;;;;;26.20;42.81;100687.09;1739234;80;21053;-82
2021/09/14 09:36:44;;;;;;;18.70;14.15;;;;;;;26.30;44.34;100684.77;1736117;80;21603;-85
2021/09/14 09:39:15;;;;;;;17.43;14.07;;;;;;;26.42;43.69;100685.67;1763162;80;21128;-81
2021/09/14 09:41:55;;;;;;;19.23;13.70;;;;;;;26.52;42.58;100687.03;1763338;80;21064;-84
2021/09/14 09:44:23;;;;;;;21.62;15.05;;;;;;;26.61;42.25;100684.37;1742511;80;21097;-80
2021/09/14 09:46:55;;;;;;;19.85;14.43;;;;;;;26.70;43.29;100683.06;1760767;80;21549;-81
2021/09/14 09:49:24;;;;;;;17.85;15.15;;;;;;;26.80;42.29;100679.09;1735569;80;21075;-85
2021/09/14 09:51:56;;;;;;;18.45;15.08;;;;;;;26.81;40.41;100678.03;1740689;80;21854;-83
2021/09/14 09:54:24;;;;;;;17.45;13.55;;;;;;;26.77;40.75;100684.34;1738604;80;21977;-83
2021/09/14 09:56:52;;;;;;;21.80;14.05;;;;;;;26.70;39.60;100684.39;1760160;80;21045;-83
2021/09/14 09:59:19;;;;;;;15.90;13.30;;;;;;;26.68;41.55;100678.98;1722710;80;21058;-84
2021/09/14 10:02:09;;;;;;;15.48;13.88;;;;;;;26.70;41.11;100684.39;1731689;81;21088;-83
2021/09/14 10:04:55;;;;;;;17.07;13.53;;;;;;;26.75;40.97;100675.72;1737909;80;40070;-85
2021/09/14 10:07:29;;;;;;;17.95;13.95;;;;;;;26.81;41.44;100677.53;1727854;80;21018;-83
2021/09/14 10:09:58;;;;;;;18.45;13.65;;;;;;;26.91;41.41;100677.00;1739255;80;20963;-83
2021/09/14 10:12:33;;;;;;;16.27;13.10;;;;;;;27.00;40.26;100680.22;1689925;83;21429;-85
2021/09/14 10:15:15;;;;;;;30.92;15.13;;;;;;;27.06;41.09;100676.64;1714930;82;21071;-84
2021/09/14 10:17:53;;;;;;;29.37;15.08;;;;;;;27.10;40.64;100674.34;1693620;83;21182;-85
2021/09/14 10:20:24;;;;;;;24.25;16.62;;;;;;;27.20;41.45;100677.30;1669865;83;21085;-79
2021/09/14 10:23:07;;;;;;;16.95;12.58;;;;;;;27.32;42.37;100667.47;1718801;82;21647;-84
2021/09/14 10:25:37;;;;;;;17.15;13.43;;;;;;;27.41;39.92;100671.97;1666480;83;21089;-82
2021/09/14 10:28:11;;;;;;;16.93;13.88;;;;;;;27.50;39.80;100672.52;1661590;85;21064;-85
2021/09/14 10:30:40;;;;;;;14.70;13.30;;;;;;;27.49;39.74;100670.87;1648399;85;21859;-84
2021/09/14 10:33:23;;;;;;;19.35;14.30;;;;;;;27.42;38.66;100669.62;1633887;85;21126;-83
2021/09/14 10:35:51;;;;;;;17.70;14.43;;;;;;;27.33;39.10;100671.77;1646554;85;21109;-85
2021/09/14 10:38:19;;;;;;;18.15;14.18;;;;;;;27.31;40.00;100661.82;1648759;85;21097;-83
2021/09/14 10:40:51;;;;;;;16.52;14.87;;;;;;;27.30;39.09;100662.86;1634210;85;21051;-83
2021/09/14 10:43:35;;;;;;;17.55;14.23;;;;;;;27.25;38.78;100657.39;1670246;83;21081;-85
2021/09/14 10:46:01;;;;;;;14.30;12.80;;;;;;;27.20;38.83;100658.59;1674229;84;21113;-85
2021/09/14 10:48:33;;;;;;;17.57;13.30;;;;;;;27.21;39.20;100658.36;1667491;85;21173;-84
2021/09/14 10:51:10;;;;;;;19.27;14.20;;;;;;;27.23;38.16;100662.13;1646851;85;21039;-86
2021/09/14 10:53:39;;;;;;;18.48;15.13;;;;;;;27.27;37.49;100651.81;1671303;85;21059;-82
2021/09/14 10:56:11;;;;;;;15.78;13.68;;;;;;;27.26;37.98;100656.85;1708813;81;21319;-81
2021/09/14 10:58:44;;;;;;;16.70;14.98;;;;;;;27.28;39.79;100651.57;1730791;81;21574;-84
2021/09/14 11:01:22;;;;;;;15.23;13.53;;;;;;;27.35;40.15;100651.49;1721968;82;21062;-85
2021/09/14 11:03:51;;;;;;;14.65;13.22;;;;;;;27.41;41.47;100650.58;1705575;83;21017;-84
2021/09/14 11:06:18;;;;;;;16.35;13.30;;;;;;;27.51;39.86;100643.41;1679884;84;21027;-85
2021/09/14 11:08:53;;;;;;;15.75;13.25;;;;;;;27.59;39.22;100645.75;1710399;81;21013;-85
2021/09/14 11:11:21;;;;;;;14.98;13.35;;;;;;;27.60;39.41;100646.55;1721768;82;21043;-88
2021/09/14 11:13:48;;;;;;;15.35;13.72;;;;;;;27.60;39.25;100652.70;1720831;82;21042;-84
2021/09/14 11:16:17;;;;;;;18.23;13.43;;;;;;;27.60;37.46;100657.25;1721116;82;21019;-85
2021/09/14 11:18:44;;;;;;;13.95;12.37;;;;;;;27.58;38.58;100660.16;1700868;82;21667;-84
2021/09/14 11:21:18;;;;;;;15.90;13.03;;;;;;;27.60;38.23;100651.37;1691770;83;21107;-87
2021/09/14 11:23:48;;;;;;;20.68;13.62;;;;;;;27.67;38.40;100653.95;1716674;82;21060;-85
2021/09/14 11:26:19;;;;;;;16.85;14.38;;;;;;;27.71;39.64;100651.13;1693296;82;21464;-82
2021/09/14 11:28:59;;;;;;;15.30;11.85;;;;;;;27.72;39.02;100650.09;1670095;84;21098;-82
2021/09/14 11:31:29;;;;;;;17.83;13.10;;;;;;;27.74;38.29;100645.31;1638021;85;21079;-86
2021/09/14 11:33:56;;;;;;;13.78;12.53;;;;;;;27.75;37.97;100641.59;1637145;85;21112;-81
2021/09/14 11:36:24;;;;;;;14.75;12.68;;;;;;;27.76;37.72;100631.73;1665243;85;21120;-85
2021/09/14 11:39:03;;;;;;;14.50;13.00;;;;;;;27.75;38.99;100643.47;1677737;84;21060;-83
2021/09/14 11:41:37;;;;;;;14.75;13.22;;;;;;;27.62;39.03;100643.14;1667909;84;21094;-83
2021/09/14 11:44:07;;;;;;;14.60;13.18;;;;;;;27.38;39.86;100632.34;1685249;83;21024;-83
2021/09/14 11:46:34;;;;;;;16.82;13.80;;;;;;;27.15;40.70;100634.38;1697332;83;21777;-84
2021/09/14 11:49:07;;;;;;;15.48;13.80;;;;;;;26.92;41.47;100639.91;1670795;84;21497;-82
2021/09/14 11:51:40;;;;;;;14.47;12.98;;;;;;;26.65;46.10;100648.17;1670887;85;21597;-84
2021/09/14 11:54:13;;;;;;;15.53;13.28;;;;;;;26.29;55.02;100655.11;1658194;85;21102;-86
2021/09/14 11:56:40;;;;;;;14.00;12.60;;;;;;;25.87;62.03;100650.28;1681683;84;21064;-85
2021/09/14 11:59:17;;;;;;;15.98;14.28;;;;;;;25.43;66.72;100647.48;1681650;84;20999;-80
2021/09/14 12:01:45;;;;;;;15.50;14.00;;;;;;;25.11;73.79;100650.06;1659326;85;21071;-83
2021/09/14 12:04:17;;;;;;;18.27;13.22;;;;;;;24.93;77.70;100652.58;1653449;86;21088;-83
2021/09/14 12:06:56;;;;;;;16.40;14.10;;;;;;;24.82;78.02;100652.72;1670499;84;21015;-83
2021/09/14 12:09:25;;;;;;;16.02;13.68;;;;;;;24.78;77.67;100646.99;1681893;84;21094;-83